sensor_id;sensor_type;location;lat;lon;timestamp;P1;durP1;ratioP1;P2;durP2;ratioP2
17915;SDS011;9083;49.156;8.982;2024-01-06T00:02:10;18.77;;;8.87;;
17915;SDS011;9083;49.156;8.982;2024-01-06T00:04:36;29.23;;;12.47;;
17915;SDS011;9083;49.156;8.982;2024-01-06T00:07:04;39.77;;;14.87;;
17915;SDS011;9083;49.156;8.982;2024-01-06T00:09:30;28.47;;;11.73;;
17915;SDS011;9083;49.156;8.982;2024-01-06T00:11:56;31.70;;;12.77;;
17915;SDS011;9083;49.156;8.982;2024-01-06T00:14:22;25.50;;;10.60;;
17915;SDS011;9083;49.156;8.982;2024-01-06T00:16:49;23.50;;;10.37;;
17915;SDS011;9083;49.156;8.982;2024-01-06T00:19:15;18.40;;;9.20;;
17915;SDS011;9083;49.156;8.982;2024-01-06T00:21:42;14.50;;;8.30;;
17915;SDS011;9083;49.156;8.982;2024-01-06T00:24:10;17.63;;;8.77;;
17915;SDS011;9083;49.156;8.982;2024-01-06T00:26:36;12.23;;;7.53;;
17915;SDS011;9083;49.156;8.982;2024-01-06T00:29:02;13.07;;;7.40;;
17915;SDS011;9083;49.156;8.982;2024-01-06T00:31:29;10.87;;;6.27;;
17915;SDS011;9083;49.156;8.982;2024-01-06T00:33:55;15.27;;;7.33;;
17915;SDS011;9083;49.156;8.982;2024-01-06T00:36:21;15.07;;;7.40;;
17915;SDS011;9083;49.156;8.982;2024-01-06T00:38:47;12.60;;;7.03;;
17915;SDS011;9083;49.156;8.982;2024-01-06T00:41:15;11.87;;;6.07;;
17915;SDS011;9083;49.156;8.982;2024-01-06T00:43:42;11.80;;;6.30;;
17915;SDS011;9083;49.156;8.982;2024-01-06T00:46:08;10.40;;;5.60;;
17915;SDS011;9083;49.156;8.982;2024-01-06T00:48:34;11.40;;;6.53;;
17915;SDS011;9083;49.156;8.982;2024-01-06T00:51:00;9.43;;;6.03;;
17915;SDS011;9083;49.156;8.982;2024-01-06T00:53:27;11.20;;;6.87;;
17915;SDS011;9083;49.156;8.982;2024-01-06T00:55:53;10.77;;;5.97;;
17915;SDS011;9083;49.156;8.982;2024-01-06T00:58:21;9.97;;;6.03;;
17915;SDS011;9083;49.156;8.982;2024-01-06T01:00:47;10.03;;;6.27;;
17915;SDS011;9083;49.156;8.982;2024-01-06T01:03:13;11.00;;;6.20;;
17915;SDS011;9083;49.156;8.982;2024-01-06T01:05:39;7.77;;;5.47;;
17915;SDS011;9083;49.156;8.982;2024-01-06T01:08:06;7.60;;;5.80;;
17915;SDS011;9083;49.156;8.982;2024-01-06T01:10:32;8.60;;;5.70;;
17915;SDS011;9083;49.156;8.982;2024-01-06T01:12:58;8.40;;;5.60;;
17915;SDS011;9083;49.156;8.982;2024-01-06T01:15:26;10.80;;;5.47;;
17915;SDS011;9083;49.156;8.982;2024-01-06T01:17:52;8.20;;;5.60;;
17915;SDS011;9083;49.156;8.982;2024-01-06T01:20:19;11.03;;;5.83;;
17915;SDS011;9083;49.156;8.982;2024-01-06T01:22:45;7.57;;;5.60;;
17915;SDS011;9083;49.156;8.982;2024-01-06T01:25:11;8.53;;;4.90;;
17915;SDS011;9083;49.156;8.982;2024-01-06T01:27:38;10.20;;;4.87;;
17915;SDS011;9083;49.156;8.982;2024-01-06T01:30:04;10.47;;;4.97;;
17915;SDS011;9083;49.156;8.982;2024-01-06T01:32:33;12.47;;;4.30;;
17915;SDS011;9083;49.156;8.982;2024-01-06T01:34:59;7.07;;;4.20;;
17915;SDS011;9083;49.156;8.982;2024-01-06T01:37:25;5.77;;;4.00;;
17915;SDS011;9083;49.156;8.982;2024-01-06T01:39:52;6.83;;;4.50;;
17915;SDS011;9083;49.156;8.982;2024-01-06T01:42:18;7.33;;;4.57;;
17915;SDS011;9083;49.156;8.982;2024-01-06T01:44:44;7.97;;;4.70;;
17915;SDS011;9083;49.156;8.982;2024-01-06T01:47:10;9.80;;;4.43;;
17915;SDS011;9083;49.156;8.982;2024-01-06T01:49:38;6.47;;;3.80;;
17915;SDS011;9083;49.156;8.982;2024-01-06T01:52:05;4.97;;;3.50;;
17915;SDS011;9083;49.156;8.982;2024-01-06T01:54:31;6.00;;;3.30;;
17915;SDS011;9083;49.156;8.982;2024-01-06T01:56:57;6.27;;;3.73;;
17915;SDS011;9083;49.156;8.982;2024-01-06T01:59:24;5.10;;;3.30;;
17915;SDS011;9083;49.156;8.982;2024-01-06T02:01:50;7.87;;;3.30;;
17915;SDS011;9083;49.156;8.982;2024-01-06T02:04:17;4.23;;;3.10;;
17915;SDS011;9083;49.156;8.982;2024-01-06T02:06:44;3.53;;;3.23;;
17915;SDS011;9083;49.156;8.982;2024-01-06T02:09:11;5.53;;;2.97;;
17915;SDS011;9083;49.156;8.982;2024-01-06T02:11:37;8.67;;;3.07;;
17915;SDS011;9083;49.156;8.982;2024-01-06T02:14:03;3.00;;;2.70;;
17915;SDS011;9083;49.156;8.982;2024-01-06T02:16:29;8.30;;;2.57;;
17915;SDS011;9083;49.156;8.982;2024-01-06T02:18:56;4.70;;;2.77;;
17915;SDS011;9083;49.156;8.982;2024-01-06T02:21:23;3.20;;;2.43;;
17915;SDS011;9083;49.156;8.982;2024-01-06T02:23:50;2.30;;;2.10;;
17915;SDS011;9083;49.156;8.982;2024-01-06T02:26:17;3.50;;;2.10;;
17915;SDS011;9083;49.156;8.982;2024-01-06T02:28:44;2.63;;;2.30;;
17915;SDS011;9083;49.156;8.982;2024-01-06T02:31:12;3.57;;;2.30;;
17915;SDS011;9083;49.156;8.982;2024-01-06T02:33:39;5.60;;;2.80;;
17915;SDS011;9083;49.156;8.982;2024-01-06T02:36:05;3.40;;;2.30;;
17915;SDS011;9083;49.156;8.982;2024-01-06T02:38:32;4.53;;;2.43;;
17915;SDS011;9083;49.156;8.982;2024-01-06T02:40:59;4.23;;;2.33;;
17915;SDS011;9083;49.156;8.982;2024-01-06T02:43:26;4.43;;;2.30;;
17915;SDS011;9083;49.156;8.982;2024-01-06T02:45:52;4.07;;;1.93;;
17915;SDS011;9083;49.156;8.982;2024-01-06T02:48:18;2.70;;;2.50;;
17915;SDS011;9083;49.156;8.982;2024-01-06T02:50:44;6.30;;;2.10;;
17915;SDS011;9083;49.156;8.982;2024-01-06T02:53:11;3.13;;;2.33;;
17915;SDS011;9083;49.156;8.982;2024-01-06T02:55:37;3.00;;;2.23;;
17915;SDS011;9083;49.156;8.982;2024-01-06T02:58:05;5.07;;;2.30;;
17915;SDS011;9083;49.156;8.982;2024-01-06T03:00:31;4.13;;;2.37;;
17915;SDS011;9083;49.156;8.982;2024-01-06T03:02:58;5.97;;;2.30;;
17915;SDS011;9083;49.156;8.982;2024-01-06T03:05:24;6.87;;;2.23;;
17915;SDS011;9083;49.156;8.982;2024-01-06T03:07:50;4.77;;;2.70;;
17915;SDS011;9083;49.156;8.982;2024-01-06T03:10:16;5.93;;;2.83;;
17915;SDS011;9083;49.156;8.982;2024-01-06T03:12:43;4.90;;;2.57;;
17915;SDS011;9083;49.156;8.982;2024-01-06T03:15:10;3.03;;;2.23;;
17915;SDS011;9083;49.156;8.982;2024-01-06T03:17:36;3.63;;;2.30;;
17915;SDS011;9083;49.156;8.982;2024-01-06T03:20:03;8.23;;;2.70;;
17915;SDS011;9083;49.156;8.982;2024-01-06T03:22:30;4.27;;;3.27;;
17915;SDS011;9083;49.156;8.982;2024-01-06T03:24:56;5.70;;;2.60;;
17915;SDS011;9083;49.156;8.982;2024-01-06T03:27:22;3.33;;;2.57;;
17915;SDS011;9083;49.156;8.982;2024-01-06T03:29:49;5.80;;;2.73;;
17915;SDS011;9083;49.156;8.982;2024-01-06T03:32:17;3.47;;;2.50;;
17915;SDS011;9083;49.156;8.982;2024-01-06T03:34:43;3.30;;;2.80;;
17915;SDS011;9083;49.156;8.982;2024-01-06T03:37:09;4.20;;;2.47;;
17915;SDS011;9083;49.156;8.982;2024-01-06T03:39:35;6.10;;;2.53;;
17915;SDS011;9083;49.156;8.982;2024-01-06T03:42:02;6.37;;;3.03;;
17915;SDS011;9083;49.156;8.982;2024-01-06T03:44:28;3.77;;;2.60;;
17915;SDS011;9083;49.156;8.982;2024-01-06T03:46:55;5.00;;;3.10;;
17915;SDS011;9083;49.156;8.982;2024-01-06T03:49:23;5.33;;;2.50;;
17915;SDS011;9083;49.156;8.982;2024-01-06T03:51:49;4.03;;;2.60;;
17915;SDS011;9083;49.156;8.982;2024-01-06T03:54:16;3.37;;;2.87;;
17915;SDS011;9083;49.156;8.982;2024-01-06T03:56:42;3.97;;;3.00;;
17915;SDS011;9083;49.156;8.982;2024-01-06T03:59:08;4.47;;;2.80;;
17915;SDS011;9083;49.156;8.982;2024-01-06T04:01:34;3.73;;;2.47;;
17915;SDS011;9083;49.156;8.982;2024-01-06T04:04:01;6.77;;;3.10;;
17915;SDS011;9083;49.156;8.982;2024-01-06T04:06:29;6.23;;;2.97;;
17915;SDS011;9083;49.156;8.982;2024-01-06T04:08:56;3.30;;;2.70;;
17915;SDS011;9083;49.156;8.982;2024-01-06T04:11:23;4.13;;;2.77;;
17915;SDS011;9083;49.156;8.982;2024-01-06T04:13:49;6.87;;;3.10;;
17915;SDS011;9083;49.156;8.982;2024-01-06T04:16:15;3.57;;;2.83;;
17915;SDS011;9083;49.156;8.982;2024-01-06T04:18:42;5.77;;;3.37;;
17915;SDS011;9083;49.156;8.982;2024-01-06T04:21:08;3.83;;;3.20;;
17915;SDS011;9083;49.156;8.982;2024-01-06T04:23:37;4.13;;;2.70;;
17915;SDS011;9083;49.156;8.982;2024-01-06T04:26:03;2.80;;;2.60;;
17915;SDS011;9083;49.156;8.982;2024-01-06T04:28:30;10.07;;;2.97;;
17915;SDS011;9083;49.156;8.982;2024-01-06T04:30:56;4.63;;;2.40;;
17915;SDS011;9083;49.156;8.982;2024-01-06T04:33:22;5.33;;;2.53;;
17915;SDS011;9083;49.156;8.982;2024-01-06T04:35:48;2.87;;;2.67;;
17915;SDS011;9083;49.156;8.982;2024-01-06T04:38:15;5.60;;;2.80;;
17915;SDS011;9083;49.156;8.982;2024-01-06T04:40:42;7.63;;;3.33;;
17915;SDS011;9083;49.156;8.982;2024-01-06T04:43:09;3.33;;;2.83;;
17915;SDS011;9083;49.156;8.982;2024-01-06T04:45:35;5.77;;;2.93;;
17915;SDS011;9083;49.156;8.982;2024-01-06T04:48:02;6.93;;;2.97;;
17915;SDS011;9083;49.156;8.982;2024-01-06T04:50:28;2.90;;;2.40;;
17915;SDS011;9083;49.156;8.982;2024-01-06T04:52:55;7.83;;;3.13;;
17915;SDS011;9083;49.156;8.982;2024-01-06T04:55:21;3.73;;;2.47;;
17915;SDS011;9083;49.156;8.982;2024-01-06T04:57:49;3.10;;;2.60;;
17915;SDS011;9083;49.156;8.982;2024-01-06T05:00:15;6.17;;;2.57;;
17915;SDS011;9083;49.156;8.982;2024-01-06T05:02:41;6.57;;;2.90;;
17915;SDS011;9083;49.156;8.982;2024-01-06T05:05:08;4.87;;;2.43;;
17915;SDS011;9083;49.156;8.982;2024-01-06T05:07:34;4.10;;;3.20;;
17915;SDS011;9083;49.156;8.982;2024-01-06T05:10:00;4.23;;;2.43;;
17915;SDS011;9083;49.156;8.982;2024-01-06T05:12:27;3.87;;;2.57;;
17915;SDS011;9083;49.156;8.982;2024-01-06T05:14:54;2.60;;;2.40;;
17915;SDS011;9083;49.156;8.982;2024-01-06T05:17:21;5.57;;;2.60;;
17915;SDS011;9083;49.156;8.982;2024-01-06T05:19:47;2.80;;;2.60;;
17915;SDS011;9083;49.156;8.982;2024-01-06T05:22:13;6.07;;;3.03;;
17915;SDS011;9083;49.156;8.982;2024-01-06T05:24:39;5.40;;;2.70;;
17915;SDS011;9083;49.156;8.982;2024-01-06T05:27:05;6.37;;;2.60;;
17915;SDS011;9083;49.156;8.982;2024-01-06T05:29:31;6.80;;;3.10;;
17915;SDS011;9083;49.156;8.982;2024-01-06T05:31:59;4.47;;;2.77;;
17915;SDS011;9083;49.156;8.982;2024-01-06T05:34:25;3.00;;;2.60;;
17915;SDS011;9083;49.156;8.982;2024-01-06T05:36:52;5.07;;;2.60;;
17915;SDS011;9083;49.156;8.982;2024-01-06T05:39:18;3.23;;;2.80;;
17915;SDS011;9083;49.156;8.982;2024-01-06T05:41:44;2.67;;;2.47;;
17915;SDS011;9083;49.156;8.982;2024-01-06T05:44:11;9.73;;;2.80;;
17915;SDS011;9083;49.156;8.982;2024-01-06T05:46:37;3.47;;;3.17;;
17915;SDS011;9083;49.156;8.982;2024-01-06T05:49:05;4.57;;;2.87;;
17915;SDS011;9083;49.156;8.982;2024-01-06T05:51:31;5.47;;;3.27;;
17915;SDS011;9083;49.156;8.982;2024-01-06T05:53:57;4.77;;;3.07;;
17915;SDS011;9083;49.156;8.982;2024-01-06T05:56:23;5.73;;;2.93;;
17915;SDS011;9083;49.156;8.982;2024-01-06T05:58:51;2.90;;;2.63;;
17915;SDS011;9083;49.156;8.982;2024-01-06T06:01:18;5.97;;;2.57;;
17915;SDS011;9083;49.156;8.982;2024-01-06T06:03:44;4.63;;;2.53;;
17915;SDS011;9083;49.156;8.982;2024-01-06T06:06:12;2.90;;;2.67;;
17915;SDS011;9083;49.156;8.982;2024-01-06T06:08:39;3.77;;;2.90;;
17915;SDS011;9083;49.156;8.982;2024-01-06T06:11:05;7.70;;;3.17;;
17915;SDS011;9083;49.156;8.982;2024-01-06T06:13:36;4.30;;;3.17;;
17915;SDS011;9083;49.156;8.982;2024-01-06T06:16:02;6.23;;;3.27;;
17915;SDS011;9083;49.156;8.982;2024-01-06T06:18:28;5.10;;;3.03;;
17915;SDS011;9083;49.156;8.982;2024-01-06T06:20:55;7.07;;;3.43;;
17915;SDS011;9083;49.156;8.982;2024-01-06T06:23:22;6.43;;;2.90;;
17915;SDS011;9083;49.156;8.982;2024-01-06T06:25:49;4.00;;;2.90;;
17915;SDS011;9083;49.156;8.982;2024-01-06T06:28:16;4.97;;;3.00;;
17915;SDS011;9083;49.156;8.982;2024-01-06T06:30:42;3.80;;;2.47;;
17915;SDS011;9083;49.156;8.982;2024-01-06T06:33:09;7.03;;;2.70;;
17915;SDS011;9083;49.156;8.982;2024-01-06T06:35:35;3.33;;;3.00;;
17915;SDS011;9083;49.156;8.982;2024-01-06T06:38:01;5.87;;;2.70;;
17915;SDS011;9083;49.156;8.982;2024-01-06T06:40:29;5.67;;;2.93;;
17915;SDS011;9083;49.156;8.982;2024-01-06T06:42:55;6.53;;;2.80;;
17915;SDS011;9083;49.156;8.982;2024-01-06T06:45:21;7.87;;;2.77;;
17915;SDS011;9083;49.156;8.982;2024-01-06T06:47:48;5.37;;;3.30;;
17915;SDS011;9083;49.156;8.982;2024-01-06T06:50:15;3.43;;;2.60;;
17915;SDS011;9083;49.156;8.982;2024-01-06T06:52:41;3.40;;;2.20;;
17915;SDS011;9083;49.156;8.982;2024-01-06T06:55:08;4.33;;;2.50;;
17915;SDS011;9083;49.156;8.982;2024-01-06T06:57:36;3.53;;;2.90;;
17915;SDS011;9083;49.156;8.982;2024-01-06T07:00:02;3.70;;;2.17;;
17915;SDS011;9083;49.156;8.982;2024-01-06T07:02:28;3.73;;;2.47;;
17915;SDS011;9083;49.156;8.982;2024-01-06T07:04:55;3.20;;;2.53;;
17915;SDS011;9083;49.156;8.982;2024-01-06T07:07:21;3.20;;;2.87;;
17915;SDS011;9083;49.156;8.982;2024-01-06T07:09:47;3.80;;;2.80;;
17915;SDS011;9083;49.156;8.982;2024-01-06T07:12:14;10.47;;;2.97;;
17915;SDS011;9083;49.156;8.982;2024-01-06T07:14:41;4.37;;;2.73;;
17915;SDS011;9083;49.156;8.982;2024-01-06T07:17:07;3.03;;;2.63;;
17915;SDS011;9083;49.156;8.982;2024-01-06T07:19:34;3.33;;;2.77;;
17915;SDS011;9083;49.156;8.982;2024-01-06T07:22:00;3.77;;;2.73;;
17915;SDS011;9083;49.156;8.982;2024-01-06T07:24:26;5.83;;;2.90;;
17915;SDS011;9083;49.156;8.982;2024-01-06T07:26:53;4.63;;;3.20;;
17915;SDS011;9083;49.156;8.982;2024-01-06T07:29:19;2.67;;;2.47;;
17915;SDS011;9083;49.156;8.982;2024-01-06T07:31:47;3.10;;;2.77;;
17915;SDS011;9083;49.156;8.982;2024-01-06T07:34:13;8.87;;;3.10;;
17915;SDS011;9083;49.156;8.982;2024-01-06T07:36:41;6.20;;;2.87;;
17915;SDS011;9083;49.156;8.982;2024-01-06T07:39:07;4.60;;;2.60;;
17915;SDS011;9083;49.156;8.982;2024-01-06T07:41:34;5.20;;;2.47;;
17915;SDS011;9083;49.156;8.982;2024-01-06T07:44:00;6.13;;;2.77;;
17915;SDS011;9083;49.156;8.982;2024-01-06T07:46:27;2.83;;;2.63;;
17915;SDS011;9083;49.156;8.982;2024-01-06T07:48:55;4.13;;;2.93;;
17915;SDS011;9083;49.156;8.982;2024-01-06T07:51:21;4.13;;;2.90;;
17915;SDS011;9083;49.156;8.982;2024-01-06T07:53:48;8.07;;;3.17;;
17915;SDS011;9083;49.156;8.982;2024-01-06T07:56:14;6.77;;;3.57;;
17915;SDS011;9083;49.156;8.982;2024-01-06T07:58:40;5.83;;;2.87;;
17915;SDS011;9083;49.156;8.982;2024-01-06T08:01:07;4.20;;;2.80;;
17915;SDS011;9083;49.156;8.982;2024-01-06T08:03:33;5.53;;;2.87;;
17915;SDS011;9083;49.156;8.982;2024-01-06T08:06:00;6.57;;;3.07;;
17915;SDS011;9083;49.156;8.982;2024-01-06T08:08:27;7.03;;;3.00;;
17915;SDS011;9083;49.156;8.982;2024-01-06T08:10:53;3.67;;;2.77;;
17915;SDS011;9083;49.156;8.982;2024-01-06T08:13:19;4.77;;;3.30;;
17915;SDS011;9083;49.156;8.982;2024-01-06T08:15:46;4.90;;;3.10;;
17915;SDS011;9083;49.156;8.982;2024-01-06T08:18:12;6.57;;;3.03;;
17915;SDS011;9083;49.156;8.982;2024-01-06T08:20:38;8.70;;;3.50;;
17915;SDS011;9083;49.156;8.982;2024-01-06T08:23:06;7.60;;;3.40;;
17915;SDS011;9083;49.156;8.982;2024-01-06T08:25:32;9.27;;;4.07;;
17915;SDS011;9083;49.156;8.982;2024-01-06T08:27:58;5.00;;;3.60;;
17915;SDS011;9083;49.156;8.982;2024-01-06T08:30:25;8.37;;;3.30;;
17915;SDS011;9083;49.156;8.982;2024-01-06T08:32:51;5.77;;;3.30;;
17915;SDS011;9083;49.156;8.982;2024-01-06T08:35:18;3.70;;;3.10;;
17915;SDS011;9083;49.156;8.982;2024-01-06T08:37:44;11.37;;;3.40;;
17915;SDS011;9083;49.156;8.982;2024-01-06T08:40:12;5.50;;;3.03;;
17915;SDS011;9083;49.156;8.982;2024-01-06T08:42:38;6.60;;;3.73;;
17915;SDS011;9083;49.156;8.982;2024-01-06T08:45:05;4.87;;;3.30;;
17915;SDS011;9083;49.156;8.982;2024-01-06T08:47:31;3.67;;;3.30;;
17915;SDS011;9083;49.156;8.982;2024-01-06T08:49:57;5.00;;;3.20;;
17915;SDS011;9083;49.156;8.982;2024-01-06T08:52:24;6.43;;;3.33;;
17915;SDS011;9083;49.156;8.982;2024-01-06T08:54:50;5.27;;;3.63;;
17915;SDS011;9083;49.156;8.982;2024-01-06T08:57:17;9.53;;;3.67;;
17915;SDS011;9083;49.156;8.982;2024-01-06T08:59:44;5.80;;;3.03;;
17915;SDS011;9083;49.156;8.982;2024-01-06T09:02:11;4.87;;;3.53;;
17915;SDS011;9083;49.156;8.982;2024-01-06T09:04:37;9.13;;;3.53;;
17915;SDS011;9083;49.156;8.982;2024-01-06T09:07:04;7.80;;;3.17;;
17915;SDS011;9083;49.156;8.982;2024-01-06T09:09:30;5.23;;;3.73;;
17915;SDS011;9083;49.156;8.982;2024-01-06T09:11:56;11.07;;;5.20;;
17915;SDS011;9083;49.156;8.982;2024-01-06T09:14:24;9.80;;;5.90;;
17915;SDS011;9083;49.156;8.982;2024-01-06T09:16:50;13.10;;;4.80;;
17915;SDS011;9083;49.156;8.982;2024-01-06T09:19:17;5.70;;;4.30;;
17915;SDS011;9083;49.156;8.982;2024-01-06T09:21:43;9.77;;;4.67;;
17915;SDS011;9083;49.156;8.982;2024-01-06T09:24:09;7.97;;;4.63;;
17915;SDS011;9083;49.156;8.982;2024-01-06T09:26:36;8.10;;;5.07;;
17915;SDS011;9083;49.156;8.982;2024-01-06T09:29:02;10.80;;;4.90;;
17915;SDS011;9083;49.156;8.982;2024-01-06T09:31:30;9.23;;;5.33;;
17915;SDS011;9083;49.156;8.982;2024-01-06T09:33:59;9.80;;;5.37;;
17915;SDS011;9083;49.156;8.982;2024-01-06T09:36:26;7.33;;;5.17;;
17915;SDS011;9083;49.156;8.982;2024-01-06T09:38:52;8.27;;;4.87;;
17915;SDS011;9083;49.156;8.982;2024-01-06T09:41:18;9.90;;;4.37;;
17915;SDS011;9083;49.156;8.982;2024-01-06T09:43:46;12.17;;;6.47;;
17915;SDS011;9083;49.156;8.982;2024-01-06T09:46:15;7.63;;;5.00;;
17915;SDS011;9083;49.156;8.982;2024-01-06T09:48:45;5.30;;;3.87;;
17915;SDS011;9083;49.156;8.982;2024-01-06T09:51:11;6.47;;;5.77;;
17915;SDS011;9083;49.156;8.982;2024-01-06T09:53:39;7.53;;;4.47;;
17915;SDS011;9083;49.156;8.982;2024-01-06T09:56:07;5.23;;;4.27;;
17915;SDS011;9083;49.156;8.982;2024-01-06T09:58:33;5.70;;;4.73;;
17915;SDS011;9083;49.156;8.982;2024-01-06T10:01:00;10.40;;;5.07;;
17915;SDS011;9083;49.156;8.982;2024-01-06T10:03:26;8.60;;;5.30;;
17915;SDS011;9083;49.156;8.982;2024-01-06T10:05:54;7.90;;;5.00;;
17915;SDS011;9083;49.156;8.982;2024-01-06T10:08:25;11.57;;;4.40;;
17915;SDS011;9083;49.156;8.982;2024-01-06T10:10:51;4.90;;;3.60;;
17915;SDS011;9083;49.156;8.982;2024-01-06T10:13:18;8.93;;;4.57;;
17915;SDS011;9083;49.156;8.982;2024-01-06T10:15:44;10.67;;;5.07;;
17915;SDS011;9083;49.156;8.982;2024-01-06T10:18:11;6.10;;;4.93;;
17915;SDS011;9083;49.156;8.982;2024-01-06T10:20:37;6.10;;;4.60;;
17915;SDS011;9083;49.156;8.982;2024-01-06T10:23:05;8.87;;;4.47;;
17915;SDS011;9083;49.156;8.982;2024-01-06T10:25:31;8.97;;;6.20;;
17915;SDS011;9083;49.156;8.982;2024-01-06T10:27:59;9.23;;;5.20;;
17915;SDS011;9083;49.156;8.982;2024-01-06T10:30:26;6.43;;;4.40;;
17915;SDS011;9083;49.156;8.982;2024-01-06T10:32:52;12.10;;;7.03;;
17915;SDS011;9083;49.156;8.982;2024-01-06T10:35:19;14.07;;;6.87;;
17915;SDS011;9083;49.156;8.982;2024-01-06T10:37:46;12.40;;;6.77;;
17915;SDS011;9083;49.156;8.982;2024-01-06T10:40:15;7.77;;;5.40;;
17915;SDS011;9083;49.156;8.982;2024-01-06T10:42:42;26.67;;;10.67;;
17915;SDS011;9083;49.156;8.982;2024-01-06T10:45:09;36.17;;;15.23;;
17915;SDS011;9083;49.156;8.982;2024-01-06T10:47:36;19.83;;;11.77;;
17915;SDS011;9083;49.156;8.982;2024-01-06T10:50:03;11.97;;;5.10;;
17915;SDS011;9083;49.156;8.982;2024-01-06T10:52:30;9.50;;;6.17;;
17915;SDS011;9083;49.156;8.982;2024-01-06T10:54:56;7.67;;;5.10;;
17915;SDS011;9083;49.156;8.982;2024-01-06T10:57:24;11.23;;;5.53;;
17915;SDS011;9083;49.156;8.982;2024-01-06T10:59:51;9.23;;;5.30;;
17915;SDS011;9083;49.156;8.982;2024-01-06T11:02:18;8.60;;;5.20;;
17915;SDS011;9083;49.156;8.982;2024-01-06T11:04:45;5.00;;;4.50;;
17915;SDS011;9083;49.156;8.982;2024-01-06T11:07:11;11.23;;;4.50;;
17915;SDS011;9083;49.156;8.982;2024-01-06T11:09:38;15.77;;;6.17;;
17915;SDS011;9083;49.156;8.982;2024-01-06T11:12:05;8.20;;;5.03;;
17915;SDS011;9083;49.156;8.982;2024-01-06T11:14:36;11.40;;;5.47;;
17915;SDS011;9083;49.156;8.982;2024-01-06T11:17:03;13.50;;;5.87;;
17915;SDS011;9083;49.156;8.982;2024-01-06T11:19:42;9.50;;;5.93;;
17915;SDS011;9083;49.156;8.982;2024-01-06T11:22:25;9.87;;;5.50;;
17915;SDS011;9083;49.156;8.982;2024-01-06T11:24:53;7.83;;;4.30;;
17915;SDS011;9083;49.156;8.982;2024-01-06T11:27:19;6.83;;;4.67;;
17915;SDS011;9083;49.156;8.982;2024-01-06T11:29:48;4.90;;;4.50;;
17915;SDS011;9083;49.156;8.982;2024-01-06T11:32:17;6.67;;;4.20;;
17915;SDS011;9083;49.156;8.982;2024-01-06T11:34:47;8.03;;;4.60;;
17915;SDS011;9083;49.156;8.982;2024-01-06T11:37:13;7.00;;;4.43;;
17915;SDS011;9083;49.156;8.982;2024-01-06T11:39:42;5.73;;;4.50;;
17915;SDS011;9083;49.156;8.982;2024-01-06T11:42:09;5.37;;;4.40;;
17915;SDS011;9083;49.156;8.982;2024-01-06T11:44:36;6.13;;;4.57;;
17915;SDS011;9083;49.156;8.982;2024-01-06T11:47:04;8.90;;;5.47;;
17915;SDS011;9083;49.156;8.982;2024-01-06T11:49:31;10.07;;;5.93;;
17915;SDS011;9083;49.156;8.982;2024-01-06T11:51:57;7.23;;;4.33;;
17915;SDS011;9083;49.156;8.982;2024-01-06T11:54:23;7.83;;;5.33;;
17915;SDS011;9083;49.156;8.982;2024-01-06T11:56:50;14.17;;;6.83;;
17915;SDS011;9083;49.156;8.982;2024-01-06T11:59:18;9.27;;;4.87;;
17915;SDS011;9083;49.156;8.982;2024-01-06T12:01:44;11.07;;;5.80;;
17915;SDS011;9083;49.156;8.982;2024-01-06T12:04:13;5.90;;;5.00;;
17915;SDS011;9083;49.156;8.982;2024-01-06T12:06:40;5.33;;;4.07;;
17915;SDS011;9083;49.156;8.982;2024-01-06T12:09:06;5.03;;;4.23;;
17915;SDS011;9083;49.156;8.982;2024-01-06T12:11:32;6.27;;;4.40;;
17915;SDS011;9083;49.156;8.982;2024-01-06T12:13:59;4.20;;;3.63;;
17915;SDS011;9083;49.156;8.982;2024-01-06T12:16:25;5.73;;;4.23;;
17915;SDS011;9083;49.156;8.982;2024-01-06T12:18:52;13.43;;;6.40;;
17915;SDS011;9083;49.156;8.982;2024-01-06T12:21:21;16.33;;;6.67;;
17915;SDS011;9083;49.156;8.982;2024-01-06T12:23:48;11.70;;;6.30;;
17915;SDS011;9083;49.156;8.982;2024-01-06T12:26:14;18.83;;;10.37;;
17915;SDS011;9083;49.156;8.982;2024-01-06T12:28:44;11.80;;;7.27;;
17915;SDS011;9083;49.156;8.982;2024-01-06T12:31:10;30.87;;;11.40;;
17915;SDS011;9083;49.156;8.982;2024-01-06T12:33:37;52.10;;;20.53;;
17915;SDS011;9083;49.156;8.982;2024-01-06T12:36:03;25.73;;;12.43;;
17915;SDS011;9083;49.156;8.982;2024-01-06T12:38:31;25.80;;;14.43;;
17915;SDS011;9083;49.156;8.982;2024-01-06T12:40:57;11.10;;;6.60;;
17915;SDS011;9083;49.156;8.982;2024-01-06T12:43:24;10.33;;;6.03;;
17915;SDS011;9083;49.156;8.982;2024-01-06T12:45:50;9.77;;;6.30;;
17915;SDS011;9083;49.156;8.982;2024-01-06T12:48:17;11.70;;;7.33;;
17915;SDS011;9083;49.156;8.982;2024-01-06T12:50:44;16.67;;;9.73;;
17915;SDS011;9083;49.156;8.982;2024-01-06T12:53:10;8.57;;;6.20;;
17915;SDS011;9083;49.156;8.982;2024-01-06T12:55:38;7.60;;;6.77;;
17915;SDS011;9083;49.156;8.982;2024-01-06T12:58:05;9.57;;;7.23;;
17915;SDS011;9083;49.156;8.982;2024-01-06T13:00:33;10.13;;;7.20;;
17915;SDS011;9083;49.156;8.982;2024-01-06T13:02:59;10.87;;;7.93;;
17915;SDS011;9083;49.156;8.982;2024-01-06T13:05:27;9.50;;;7.80;;
17915;SDS011;9083;49.156;8.982;2024-01-06T13:07:53;7.90;;;5.27;;
17915;SDS011;9083;49.156;8.982;2024-01-06T13:10:19;9.67;;;6.43;;
17915;SDS011;9083;49.156;8.982;2024-01-06T13:12:47;6.80;;;5.90;;
17915;SDS011;9083;49.156;8.982;2024-01-06T13:15:13;6.67;;;5.70;;
17915;SDS011;9083;49.156;8.982;2024-01-06T13:17:39;8.90;;;6.17;;
17915;SDS011;9083;49.156;8.982;2024-01-06T13:20:06;6.77;;;5.40;;
17915;SDS011;9083;49.156;8.982;2024-01-06T13:22:33;8.73;;;5.67;;
17915;SDS011;9083;49.156;8.982;2024-01-06T13:24:59;7.97;;;5.33;;
17915;SDS011;9083;49.156;8.982;2024-01-06T13:27:25;8.63;;;5.63;;
17915;SDS011;9083;49.156;8.982;2024-01-06T13:29:54;11.13;;;5.37;;
17915;SDS011;9083;49.156;8.982;2024-01-06T13:32:21;7.03;;;5.83;;
17915;SDS011;9083;49.156;8.982;2024-01-06T13:34:48;7.80;;;5.40;;
17915;SDS011;9083;49.156;8.982;2024-01-06T13:37:19;7.63;;;5.70;;
17915;SDS011;9083;49.156;8.982;2024-01-06T13:39:47;9.37;;;6.03;;
17915;SDS011;9083;49.156;8.982;2024-01-06T13:42:13;8.57;;;5.93;;
17915;SDS011;9083;49.156;8.982;2024-01-06T13:44:40;12.67;;;6.10;;
17915;SDS011;9083;49.156;8.982;2024-01-06T13:47:07;11.27;;;5.80;;
17915;SDS011;9083;49.156;8.982;2024-01-06T13:49:34;9.03;;;5.53;;
17915;SDS011;9083;49.156;8.982;2024-01-06T13:52:00;10.13;;;5.60;;
17915;SDS011;9083;49.156;8.982;2024-01-06T13:54:26;7.23;;;5.63;;
17915;SDS011;9083;49.156;8.982;2024-01-06T13:56:52;8.87;;;5.43;;
17915;SDS011;9083;49.156;8.982;2024-01-06T13:59:19;16.13;;;7.03;;
17915;SDS011;9083;49.156;8.982;2024-01-06T14:01:45;20.70;;;10.50;;
17915;SDS011;9083;49.156;8.982;2024-01-06T14:04:13;21.53;;;11.60;;
17915;SDS011;9083;49.156;8.982;2024-01-06T14:06:39;16.80;;;9.00;;
17915;SDS011;9083;49.156;8.982;2024-01-06T14:09:05;8.47;;;6.10;;
17915;SDS011;9083;49.156;8.982;2024-01-06T14:11:32;8.30;;;6.03;;
17915;SDS011;9083;49.156;8.982;2024-01-06T14:13:58;8.60;;;6.60;;
17915;SDS011;9083;49.156;8.982;2024-01-06T14:16:25;11.17;;;7.50;;
17915;SDS011;9083;49.156;8.982;2024-01-06T14:18:51;10.13;;;7.20;;
17915;SDS011;9083;49.156;8.982;2024-01-06T14:21:19;15.07;;;8.03;;
17915;SDS011;9083;49.156;8.982;2024-01-06T14:23:45;12.43;;;6.73;;
17915;SDS011;9083;49.156;8.982;2024-01-06T14:26:13;11.17;;;6.23;;
17915;SDS011;9083;49.156;8.982;2024-01-06T14:28:39;8.10;;;5.40;;
17915;SDS011;9083;49.156;8.982;2024-01-06T14:31:05;5.57;;;4.80;;
17915;SDS011;9083;49.156;8.982;2024-01-06T14:33:32;8.43;;;5.43;;
17915;SDS011;9083;49.156;8.982;2024-01-06T14:36:00;13.90;;;5.90;;
17915;SDS011;9083;49.156;8.982;2024-01-06T14:38:27;9.60;;;5.97;;
17915;SDS011;9083;49.156;8.982;2024-01-06T14:40:54;8.37;;;5.40;;
17915;SDS011;9083;49.156;8.982;2024-01-06T14:43:20;8.00;;;5.80;;
17915;SDS011;9083;49.156;8.982;2024-01-06T14:45:46;10.27;;;6.57;;
17915;SDS011;9083;49.156;8.982;2024-01-06T14:48:13;10.97;;;7.47;;
17915;SDS011;9083;49.156;8.982;2024-01-06T14:50:39;7.27;;;5.90;;
17915;SDS011;9083;49.156;8.982;2024-01-06T14:53:05;7.70;;;5.30;;
17915;SDS011;9083;49.156;8.982;2024-01-06T14:55:33;11.37;;;5.87;;